createdAt,value
2019-05-14T00:01:11.758Z,103198.91
2019-05-14T00:06:13.702Z,103195.81
2019-05-14T00:11:16.428Z,103202.72
2019-05-14T00:16:21.658Z,103202.28
2019-05-14T00:21:23.785Z,103203.14
2019-05-14T00:26:26.506Z,103202.25
2019-05-14T00:31:29.239Z,103199.13
2019-05-14T00:36:32.034Z,103196.06
2019-05-14T00:41:34.832Z,103201.15
2019-05-14T00:46:40.947Z,103195.49
2019-05-14T00:51:44.563Z,103197.78
2019-05-14T00:56:47.350Z,103197.05
2019-05-14T01:01:51.621Z,103201.91
2019-05-14T01:06:54.554Z,103198.81
2019-05-14T01:11:57.354Z,103193.35
2019-05-14T01:17:02.008Z,103188.64
2019-05-14T01:22:04.864Z,103183.02
2019-05-14T01:27:07.576Z,103183.41
2019-05-14T01:32:11.664Z,103173.00
2019-05-14T01:37:14.533Z,103173.48
2019-05-14T01:42:17.361Z,103158.74
2019-05-14T01:47:21.385Z,103153.80
2019-05-14T01:52:24.887Z,103156.00
2019-05-14T01:57:27.692Z,103157.30
2019-05-14T02:02:31.315Z,103144.02
2019-05-14T02:07:34.230Z,103145.34
2019-05-14T02:12:36.934Z,103132.56
2019-05-14T02:17:41.373Z,103122.34
2019-05-14T02:22:44.268Z,103132.27
2019-05-14T02:27:46.967Z,103134.41
2019-05-14T02:32:49.979Z,103133.97
2019-05-14T02:37:52.892Z,103135.23
2019-05-14T02:42:59.024Z,103137.30
2019-05-14T02:48:00.685Z,103138.44
2019-05-14T02:53:03.660Z,103139.35
2019-05-14T02:58:09.744Z,103142.45
2019-05-14T03:03:11.005Z,103146.42
2019-05-14T03:08:13.754Z,103136.44
2019-05-14T03:13:16.493Z,103143.52
2019-05-14T03:18:21.116Z,103137.14
2019-05-14T03:23:23.838Z,103142.19
2019-05-14T03:28:30.086Z,103140.58
2019-05-14T03:33:33.552Z,103132.30
2019-05-14T03:38:39.443Z,103133.57
2019-05-14T03:43:40.907Z,103126.60
2019-05-14T03:48:43.623Z,103131.00
2019-05-14T03:53:59.977Z,103130.59
2019-05-14T03:58:50.967Z,103125.37
2019-05-14T04:03:53.900Z,103122.80
2019-05-14T04:09:00.543Z,103121.08
2019-05-14T04:14:04.114Z,103132.07
2019-05-14T04:19:11.400Z,103126.51
2019-05-14T04:24:20.035Z,103133.55
2019-05-14T04:29:30.293Z,103128.31
2019-05-14T04:34:32.778Z,103137.16
2019-05-14T04:39:35.592Z,103143.35
2019-05-14T04:44:40.569Z,103133.02
2019-05-14T04:49:45.335Z,103134.73
2019-05-14T04:54:49.960Z,103131.67
2019-05-14T04:59:52.976Z,103137.34
2019-05-14T05:04:55.717Z,103143.05
2019-05-14T05:09:59.546Z,103143.11
2019-05-14T05:15:02.675Z,103140.17
2019-05-14T05:20:06.298Z,103152.05
2019-05-14T05:25:09.114Z,103158.16
2019-05-14T05:30:11.959Z,103151.22
2019-05-14T05:35:14.928Z,103153.52
2019-05-14T05:40:19.750Z,103151.87
2019-05-14T05:45:22.257Z,103161.99
2019-05-14T05:50:24.963Z,103164.14
2019-05-14T05:55:28.778Z,103155.77
2019-05-14T06:00:35.829Z,103147.94
2019-05-14T06:05:39.070Z,103140.75
2019-05-14T06:10:41.977Z,103134.02
2019-05-14T06:15:48.675Z,103128.44
2019-05-14T06:20:49.590Z,103124.51
2019-05-14T06:25:52.407Z,103125.95
2019-05-14T06:30:55.175Z,103125.13
2019-05-14T06:35:59.137Z,103118.61
2019-05-14T06:41:02.221Z,103112.05
2019-05-14T06:46:04.953Z,103116.86
2019-05-14T06:51:08.824Z,103123.42
2019-05-14T06:56:11.791Z,103123.43
2019-05-14T07:01:14.511Z,103115.09
2019-05-14T07:06:18.669Z,103100.20
2019-05-14T07:11:21.666Z,103119.47
2019-05-14T07:16:24.398Z,103115.55
2019-05-14T07:21:29.181Z,103107.67
2019-05-14T07:26:31.779Z,103115.06
2019-05-14T07:31:34.495Z,103125.45
2019-05-14T07:36:38.721Z,103127.55
2019-05-14T07:41:41.796Z,103137.97
2019-05-14T07:46:45.145Z,103143.58
2019-05-14T07:51:48.278Z,103127.41
2019-05-14T07:56:53.005Z,103133.69
2019-05-14T08:01:55.735Z,103124.16
2019-05-14T08:06:58.494Z,103115.14
2019-05-14T08:12:01.210Z,103109.62
2019-05-14T08:17:03.974Z,103104.86
2019-05-14T08:22:09.155Z,103103.77
2019-05-14T08:27:11.311Z,103096.86
2019-05-14T08:32:14.026Z,103094.31
2019-05-14T08:37:18.904Z,103085.77
2019-05-14T08:42:21.404Z,103074.22
2019-05-14T08:47:24.179Z,103054.58
2019-05-14T08:52:28.860Z,103060.90
2019-05-14T08:57:31.645Z,103069.97
2019-05-14T09:02:35.069Z,103060.09
2019-05-14T09:07:38.460Z,103061.14
2019-05-14T09:12:42.348Z,103052.27
2019-05-14T09:17:48.126Z,103045.05
2019-05-14T09:22:51.190Z,103040.73
2019-05-14T09:27:54.554Z,103029.89
2019-05-14T09:32:59.383Z,103029.80
2019-05-14T09:38:03.372Z,103031.62
2019-05-14T09:43:09.046Z,103031.62
2019-05-14T09:48:12.274Z,103027.48
2019-05-14T09:53:18.020Z,103019.84
2019-05-14T09:58:21.591Z,103018.03
2019-05-14T10:03:25.441Z,103010.11
2019-05-14T10:08:29.072Z,103010.11
2019-05-14T10:13:32.600Z,102988.42
2019-05-14T10:18:37.876Z,102993.76
2019-05-14T10:23:40.456Z,102994.08
2019-05-14T10:28:43.678Z,102984.85
2019-05-14T10:33:48.531Z,102969.70
2019-05-14T10:38:52.154Z,102974.83
2019-05-14T10:43:55.345Z,102966.02
2019-05-14T10:49:03.550Z,102962.75
2019-05-14T10:54:20.529Z,102960.41
2019-05-14T10:59:09.629Z,102944.78
2019-05-14T11:04:12.490Z,102931.08
2019-05-14T11:09:17.925Z,102930.16
2019-05-14T11:14:21.490Z,102921.80
2019-05-14T11:19:24.949Z,102913.08
2019-05-14T11:24:29.534Z,102897.56
2019-05-14T11:29:32.532Z,102903.22
2019-05-14T11:34:35.266Z,102899.64
2019-05-14T11:39:38.768Z,102893.51
2019-05-14T11:44:42.615Z,102890.52
2019-05-14T11:49:49.002Z,102884.57
2019-05-14T11:54:52.596Z,102881.75
2019-05-14T11:59:58.082Z,102882.78
2019-05-14T12:05:01.586Z,102889.86
2019-05-14T12:10:08.843Z,102872.03
2019-05-14T12:15:11.266Z,102867.52
2019-05-14T12:20:14.396Z,102859.83
2019-05-14T12:25:18.820Z,102851.39
2019-05-14T12:30:21.838Z,102840.97
2019-05-14T12:35:24.545Z,102845.53
2019-05-14T12:40:28.839Z,102831.68
2019-05-14T12:45:32.021Z,102821.52
2019-05-14T12:50:34.869Z,102815.30
2019-05-14T12:55:39.968Z,102807.72
2019-05-14T13:00:42.289Z,102804.22
2019-05-14T13:05:45.032Z,102799.70
2019-05-14T13:10:49.135Z,102789.20
2019-05-14T13:15:52.170Z,102786.69
2019-05-14T13:20:54.908Z,102768.45
2019-05-14T13:25:59.017Z,102764.93
2019-05-14T13:31:02.123Z,102757.53
2019-05-14T13:36:04.904Z,102746.70
2019-05-14T13:41:08.641Z,102739.40
2019-05-14T13:46:14.947Z,102737.14
2019-05-14T13:51:16.203Z,102722.27
2019-05-14T13:56:19.140Z,102713.11
2019-05-14T14:01:21.977Z,102720.34
2019-05-14T14:06:24.706Z,102702.07
2019-05-14T14:11:28.665Z,102690.08
2019-05-14T14:16:32.112Z,102689.25
2019-05-14T14:21:34.868Z,102687.02
2019-05-14T14:26:39.392Z,102689.08
2019-05-14T14:31:42.345Z,102678.82
2019-05-14T14:36:45.109Z,102671.56
2019-05-14T14:41:48.901Z,102662.81
2019-05-14T14:46:51.846Z,102655.66
2019-05-14T14:51:54.588Z,102647.28
2019-05-14T14:57:09.782Z,102640.91
2019-05-14T15:02:12.567Z,102632.21
2019-05-14T15:07:20.144Z,102638.86
2019-05-14T15:12:29.106Z,102633.11
2019-05-14T15:17:35.107Z,102632.28
2019-05-14T15:22:39.055Z,102622.00
2019-05-14T15:27:43.784Z,102628.89
2019-05-14T15:32:51.533Z,102617.48
2019-05-14T15:37:58.941Z,102621.26
2019-05-14T15:43:02.543Z,102607.89
2019-05-14T15:48:08.981Z,102605.16
2019-05-14T15:53:11.873Z,102611.27
2019-05-14T15:58:20.824Z,102601.28
2019-05-14T16:03:23.130Z,102587.07
2019-05-14T16:08:25.916Z,102587.91
2019-05-14T16:13:28.689Z,102591.79
2019-05-14T16:18:31.495Z,102586.94
2019-05-14T16:23:34.311Z,102578.59
2019-05-14T16:28:39.536Z,102569.74
2019-05-14T16:33:41.674Z,102568.52
2019-05-14T16:38:44.404Z,102569.91
2019-05-14T16:43:49.427Z,102577.38
2019-05-14T16:48:51.995Z,102564.89
2019-05-14T16:53:54.754Z,102556.91
2019-05-14T16:58:58.311Z,102575.00
2019-05-14T17:04:01.218Z,102569.98
2019-05-14T17:09:08.841Z,102570.98
2019-05-14T17:14:11.226Z,102562.21
2019-05-14T17:19:14.151Z,102548.34
2019-05-14T17:24:19.769Z,102576.05
2019-05-14T17:29:21.626Z,102569.78
2019-05-14T17:34:24.359Z,102574.92
2019-05-14T17:39:27.187Z,102571.95
2019-05-14T17:44:29.929Z,102569.95
2019-05-14T17:49:32.677Z,102581.25
2019-05-14T17:54:35.414Z,102563.89
2019-05-14T17:59:39.066Z,102563.89
2019-05-14T18:04:43.197Z,102561.74
2019-05-14T18:09:46.080Z,102550.48
2019-05-14T18:14:48.893Z,102557.88
2019-05-14T18:19:51.650Z,102546.80
2019-05-14T18:24:54.433Z,102546.42
2019-05-14T18:29:59.293Z,102542.78
2019-05-14T18:35:05.753Z,102538.56
2019-05-14T18:40:10.574Z,102553.37
2019-05-14T18:45:15.404Z,102545.47
2019-05-14T18:50:19.751Z,102554.72
2019-05-14T18:55:23.372Z,102556.70
2019-05-14T19:00:29.483Z,102560.43
2019-05-14T19:05:32.542Z,102563.80
2019-05-14T19:10:39.033Z,102562.40
2019-05-14T19:15:42.201Z,102563.14
2019-05-14T19:20:48.422Z,102577.08
2019-05-14T19:25:51.743Z,102573.81
2019-05-14T19:30:56.029Z,102570.48
2019-05-14T19:35:59.921Z,102567.30
2019-05-14T19:41:04.826Z,102571.71
2019-05-14T19:46:08.965Z,102573.77
2019-05-14T19:51:13.489Z,102571.81
2019-05-14T19:56:17.525Z,102577.73
2019-05-14T20:01:21.403Z,102584.25
2019-05-14T20:06:29.542Z,102578.45
2019-05-14T20:11:33.809Z,102577.25
2019-05-14T20:16:39.288Z,102584.48
2019-05-14T20:21:42.972Z,102578.48
2019-05-14T20:26:48.804Z,102587.89
2019-05-14T20:31:52.298Z,102589.93
2019-05-14T20:36:58.732Z,102589.49
2019-05-14T20:42:01.938Z,102587.33
2019-05-14T20:47:04.729Z,102587.58
2019-05-14T20:52:09.341Z,102584.80
2019-05-14T20:57:23.243Z,102573.38
2019-05-14T21:02:18.576Z,102579.12
2019-05-14T21:07:21.482Z,102579.14
2019-05-14T21:12:24.214Z,102581.92
2019-05-14T21:17:28.249Z,102577.97
2019-05-14T21:22:31.111Z,102576.84
2019-05-14T21:27:44.552Z,102577.06
2019-05-14T21:32:42.038Z,102578.08
2019-05-14T21:37:43.176Z,102576.23
2019-05-14T21:42:45.921Z,102576.70
2019-05-14T21:47:48.640Z,102570.23
2019-05-14T21:52:51.337Z,102574.62
2019-05-14T21:57:57.157Z,102568.42
2019-05-14T22:02:58.804Z,102574.66
2019-05-14T22:08:01.558Z,102567.45
2019-05-14T22:13:04.362Z,102567.47
2019-05-14T22:18:16.606Z,102565.48
2019-05-14T22:23:11.886Z,102565.89
2019-05-14T22:28:15.816Z,102557.25
2019-05-14T22:33:19.249Z,102569.52
2019-05-14T22:38:21.979Z,102565.13
2019-05-14T22:43:24.711Z,102563.43
2019-05-14T22:48:27.434Z,102575.28
2019-05-14T22:53:30.535Z,102577.95
2019-05-14T22:58:33.334Z,102575.34
2019-05-14T23:03:36.092Z,102576.70
2019-05-14T23:08:39.222Z,102576.27
2019-05-14T23:13:42.230Z,102580.25
2019-05-14T23:18:44.959Z,102587.67
2019-05-14T23:23:47.863Z,102579.39
2019-05-14T23:28:50.684Z,102584.62
2019-05-14T23:33:53.402Z,102580.23
2019-05-14T23:38:59.146Z,102577.22
2019-05-14T23:44:01.933Z,102571.53
2019-05-14T23:49:04.660Z,102567.62
2019-05-14T23:54:08.801Z,102565.45
2019-05-14T23:59:11.851Z,102561.55
